Terminal Aerodrome Forecast
Issued by NWS Wilmington, OH

Current Version | Previous Version | Text Only | Print | Product List | Glossary Off
Versions: 1 2 3 4 5 6 7 8 9 10 11 12 13 14 15 16 17 18 19 20 21 22 23 24 25

000
FTUS41 KILN 152002 AAA
TAFCMH
TAF AMD
KCMH 152002Z 1520/1618 19004KT P6SM -RA VCSH BKN018 BKN027 OVC070
     FM152200 23012G22KT 3SM SHRA VCTS OVC015CB
     FM160400 25011G21KT 2SM SHRA OVC008
     FM160900 31009KT 3SM -SHRA OVC015
     FM161400 33011KT P6SM VCSH OVC015=

USA.gov is the U.S. government's official web portal to all federal, state and local government web resources and services.